Siem Pilot — LCPF — position and weather

sailwx.info

Track history (hours):
 
Tides and Currents Weather Stations Pressure Air Temp Water Temp Dewpoint Dewpoint Depression Visibility Wind Speed Wind Dir Waves Ship Positions

Siem Pilot

Last reported at 2015-May-18 23:09 UTC. Time now 2015-May-22 20:44 UTC.
Position N 60°24' E 005°19'.

Length 88 m; draft 5.3 m.

Type: Cargo ship. MMSI: 257458000.

Date/timePositionNaut miles runAvg speedWind from/ knotsBaromVisibWave heightAir tempDewpointWater temp
2015-May-18 23:09N 60°24' E 005°19'0 0.0
2015-May-18 02:15N 60°24' E 005°19'  
2015-May-10 15:26N 59°30' E 005°13'8 8.6
2015-May-10 14:33N 59°23' E 005°18'10 9.6
2015-May-10 13:33N 59°13' E 005°21'10 9.7
2015-May-10 12:33N 59°05' E 005°32'6 5.9
2015-May-10 11:32N 59°02' E 005°41'0 0.0
2015-May-10 10:32N 59°02' E 005°41'0 0.0
2015-May-10 09:32N 59°02' E 005°41'0 0.0
2015-May-10 08:32N 59°02' E 005°41'0 0.0
2015-May-10 07:32N 59°02' E 005°41'0 0.0
2015-May-10 06:32N 59°02' E 005°41'0 0.0
2015-May-10 05:32N 59°02' E 005°41'0 0.0
2015-May-10 04:32N 59°02' E 005°41'0 0.0
2015-May-10 03:32N 59°02' E 005°41'0 0.0
2015-May-10 02:32N 59°02' E 005°41'0 0.0
2015-May-10 01:32N 59°02' E 005°41'0 0.0
2015-May-10 00:32N 59°02' E 005°41'0 0.0
2015-May-09 23:32N 59°02' E 005°41'0 0.0
2015-May-09 22:32N 59°02' E 005°41'0 0.0
2015-May-09 21:32N 59°02' E 005°41'0 0.0
2015-May-09 20:32N 59°02' E 005°41'0 0.0
2015-May-09 19:32N 59°02' E 005°41'0 0.0
2015-May-09 18:32N 59°02' E 005°41'0 0.0
2015-May-09 17:32N 59°02' E 005°41'0 0.0
2015-May-09 16:32N 59°02' E 005°41'0 0.0
2015-May-09 15:32N 59°02' E 005°41'0 0.0
2015-May-09 14:32N 59°02' E 005°41'0 0.0
2015-May-09 13:32N 59°02' E 005°41'0 0.0
2015-May-09 12:32N 59°02' E 005°41'0 0.0
2015-May-09 11:32N 59°02' E 005°41'0 0.1
2015-May-09 10:32N 59°02' E 005°41'0 0.0
2015-May-09 09:32N 59°02' E 005°41'0 0.0
2015-May-09 08:32N 59°02' E 005°41'0 0.0
2015-May-09 07:32N 59°02' E 005°41'0 0.0
2015-May-09 06:26N 59°02' E 005°41'0 0.0
2015-May-09 05:29N 59°02' E 005°41'0 0.0
2015-May-09 04:32N 59°02' E 005°41'0 0.0
2015-May-09 03:32N 59°02' E 005°41'0 0.0
2015-May-09 02:32N 59°02' E 005°41'0 0.0
2015-May-09 01:32N 59°02' E 005°41'0 0.0
2015-May-09 00:32N 59°02' E 005°41'0 0.0
2015-May-08 23:32N 59°02' E 005°41'  
Track history (hours):
 
Tides and Currents Weather Stations Pressure Air Temp Water Temp Dewpoint Dewpoint Depression Visibility Wind Speed Wind Dir Waves Ship Positions

Siem Pilot

Last reported at 2015-May-18 23:09 UTC. Time now 2015-May-22 20:44 UTC.
Position N 60°24' E 005°19'.

Length 88 m; draft 5.3 m.

Type: Cargo ship. MMSI: 257458000.

Date/timePositionNaut miles runAvg speedWind from/ knotsBaromVisibWave heightAir tempDewpointWater temp
2015-May-18 23:09N 60°24' E 005°19'0 0.0
2015-May-18 02:15N 60°24' E 005°19'  
2015-May-10 15:26N 59°30' E 005°13'8 8.6
2015-May-10 14:33N 59°23' E 005°18'10 9.6
2015-May-10 13:33N 59°13' E 005°21'10 9.7
2015-May-10 12:33N 59°05' E 005°32'6 5.9
2015-May-10 11:32N 59°02' E 005°41'0 0.0
2015-May-10 10:32N 59°02' E 005°41'0 0.0
2015-May-10 09:32N 59°02' E 005°41'0 0.0
2015-May-10 08:32N 59°02' E 005°41'0 0.0
2015-May-10 07:32N 59°02' E 005°41'0 0.0
2015-May-10 06:32N 59°02' E 005°41'0 0.0
2015-May-10 05:32N 59°02' E 005°41'0 0.0
2015-May-10 04:32N 59°02' E 005°41'0 0.0
2015-May-10 03:32N 59°02' E 005°41'0 0.0
2015-May-10 02:32N 59°02' E 005°41'0 0.0
2015-May-10 01:32N 59°02' E 005°41'0 0.0
2015-May-10 00:32N 59°02' E 005°41'0 0.0
2015-May-09 23:32N 59°02' E 005°41'0 0.0
2015-May-09 22:32N 59°02' E 005°41'0 0.0
2015-May-09 21:32N 59°02' E 005°41'0 0.0
2015-May-09 20:32N 59°02' E 005°41'0 0.0
2015-May-09 19:32N 59°02' E 005°41'0 0.0
2015-May-09 18:32N 59°02' E 005°41'0 0.0
2015-May-09 17:32N 59°02' E 005°41'0 0.0
2015-May-09 16:32N 59°02' E 005°41'0 0.0
2015-May-09 15:32N 59°02' E 005°41'0 0.0
2015-May-09 14:32N 59°02' E 005°41'0 0.0
2015-May-09 13:32N 59°02' E 005°41'0 0.0
2015-May-09 12:32N 59°02' E 005°41'0 0.0
2015-May-09 11:32N 59°02' E 005°41'0 0.1
2015-May-09 10:32N 59°02' E 005°41'0 0.0
2015-May-09 09:32N 59°02' E 005°41'0 0.0
2015-May-09 08:32N 59°02' E 005°41'0 0.0
2015-May-09 07:32N 59°02' E 005°41'0 0.0
2015-May-09 06:26N 59°02' E 005°41'0 0.0
2015-May-09 05:29N 59°02' E 005°41'0 0.0
2015-May-09 04:32N 59°02' E 005°41'0 0.0
2015-May-09 03:32N 59°02' E 005°41'0 0.0
2015-May-09 02:32N 59°02' E 005°41'0 0.0
2015-May-09 01:32N 59°02' E 005°41'0 0.0
2015-May-09 00:32N 59°02' E 005°41'0 0.0
2015-May-08 23:32N 59°02' E 005°41'  

Dump ship's entire track history